sensor_id;sensor_type;location;lat;lon;timestamp;P1;durP1;ratioP1;P2;durP2;ratioP2
55222;SDS011;41090;48.632;12.428;2022-08-21T00:00:21;10.70;;;9.63;;
55222;SDS011;41090;48.632;12.428;2022-08-21T00:02:49;9.87;;;8.87;;
55222;SDS011;41090;48.632;12.428;2022-08-21T00:05:15;9.10;;;8.20;;
55222;SDS011;41090;48.632;12.428;2022-08-21T00:07:41;9.97;;;8.97;;
55222;SDS011;41090;48.632;12.428;2022-08-21T00:10:06;9.13;;;8.43;;
55222;SDS011;41090;48.632;12.428;2022-08-21T00:12:31;9.13;;;8.03;;
55222;SDS011;41090;48.632;12.428;2022-08-21T00:14:57;9.83;;;8.47;;
55222;SDS011;41090;48.632;12.428;2022-08-21T00:17:22;10.70;;;9.60;;
55222;SDS011;41090;48.632;12.428;2022-08-21T00:19:47;10.53;;;9.53;;
55222;SDS011;41090;48.632;12.428;2022-08-21T00:22:13;11.03;;;9.73;;
55222;SDS011;41090;48.632;12.428;2022-08-21T00:24:38;9.50;;;8.60;;
55222;SDS011;41090;48.632;12.428;2022-08-21T00:27:03;8.73;;;7.87;;
55222;SDS011;41090;48.632;12.428;2022-08-21T00:29:28;9.67;;;8.70;;
55222;SDS011;41090;48.632;12.428;2022-08-21T00:31:54;9.57;;;8.77;;
55222;SDS011;41090;48.632;12.428;2022-08-21T00:34:19;8.07;;;7.30;;
55222;SDS011;41090;48.632;12.428;2022-08-21T00:36:44;9.60;;;8.43;;
55222;SDS011;41090;48.632;12.428;2022-08-21T00:39:10;12.03;;;9.13;;
55222;SDS011;41090;48.632;12.428;2022-08-21T00:41:36;9.20;;;8.40;;
55222;SDS011;41090;48.632;12.428;2022-08-21T00:44:02;9.37;;;8.57;;
55222;SDS011;41090;48.632;12.428;2022-08-21T00:46:29;11.30;;;9.67;;
55222;SDS011;41090;48.632;12.428;2022-08-21T00:48:54;11.07;;;9.63;;
55222;SDS011;41090;48.632;12.428;2022-08-21T00:51:22;10.27;;;9.23;;
55222;SDS011;41090;48.632;12.428;2022-08-21T00:53:51;10.67;;;9.50;;
55222;SDS011;41090;48.632;12.428;2022-08-21T00:56:18;11.43;;;8.70;;
55222;SDS011;41090;48.632;12.428;2022-08-21T00:58:44;9.57;;;8.60;;
55222;SDS011;41090;48.632;12.428;2022-08-21T01:01:11;12.07;;;8.90;;
55222;SDS011;41090;48.632;12.428;2022-08-21T01:03:36;9.70;;;8.60;;
55222;SDS011;41090;48.632;12.428;2022-08-21T01:06:02;12.27;;;9.00;;
55222;SDS011;41090;48.632;12.428;2022-08-21T01:08:29;9.40;;;8.50;;
55222;SDS011;41090;48.632;12.428;2022-08-21T01:10:55;14.23;;;8.37;;
55222;SDS011;41090;48.632;12.428;2022-08-21T01:13:21;10.80;;;7.60;;
55222;SDS011;41090;48.632;12.428;2022-08-21T01:15:50;12.33;;;7.90;;
55222;SDS011;41090;48.632;12.428;2022-08-21T01:18:17;8.40;;;7.43;;
55222;SDS011;41090;48.632;12.428;2022-08-21T01:23:10;12.70;;;8.03;;
55222;SDS011;41090;48.632;12.428;2022-08-21T01:25:35;9.13;;;7.47;;
55222;SDS011;41090;48.632;12.428;2022-08-21T01:28:06;11.57;;;7.47;;
55222;SDS011;41090;48.632;12.428;2022-08-21T01:30:32;11.23;;;9.10;;
55222;SDS011;41090;48.632;12.428;2022-08-21T01:32:58;9.03;;;8.17;;
55222;SDS011;41090;48.632;12.428;2022-08-21T01:35:24;9.53;;;8.43;;
55222;SDS011;41090;48.632;12.428;2022-08-21T01:37:52;10.10;;;8.27;;
55222;SDS011;41090;48.632;12.428;2022-08-21T01:40:17;10.27;;;8.33;;
55222;SDS011;41090;48.632;12.428;2022-08-21T01:42:44;8.83;;;7.57;;
55222;SDS011;41090;48.632;12.428;2022-08-21T01:45:09;8.43;;;7.63;;
55222;SDS011;41090;48.632;12.428;2022-08-21T01:47:35;9.03;;;7.77;;
55222;SDS011;41090;48.632;12.428;2022-08-21T01:50:00;8.07;;;6.73;;
55222;SDS011;41090;48.632;12.428;2022-08-21T01:52:26;9.23;;;7.40;;
55222;SDS011;41090;48.632;12.428;2022-08-21T01:54:51;7.60;;;6.90;;
55222;SDS011;41090;48.632;12.428;2022-08-21T01:57:16;7.30;;;6.60;;
55222;SDS011;41090;48.632;12.428;2022-08-21T01:59:42;8.10;;;7.30;;
55222;SDS011;41090;48.632;12.428;2022-08-21T02:02:07;8.90;;;8.10;;
55222;SDS011;41090;48.632;12.428;2022-08-21T02:04:32;9.43;;;7.83;;
55222;SDS011;41090;48.632;12.428;2022-08-21T02:06:58;10.77;;;8.53;;
55222;SDS011;41090;48.632;12.428;2022-08-21T02:09:23;9.90;;;8.53;;
55222;SDS011;41090;48.632;12.428;2022-08-21T02:11:49;9.60;;;8.73;;
55222;SDS011;41090;48.632;12.428;2022-08-21T02:14:14;9.33;;;7.87;;
55222;SDS011;41090;48.632;12.428;2022-08-21T02:16:40;8.67;;;7.87;;
55222;SDS011;41090;48.632;12.428;2022-08-21T02:19:06;10.43;;;9.47;;
55222;SDS011;41090;48.632;12.428;2022-08-21T02:21:31;9.10;;;7.97;;
55222;SDS011;41090;48.632;12.428;2022-08-21T02:23:56;10.53;;;8.13;;
55222;SDS011;41090;48.632;12.428;2022-08-21T02:26:22;11.10;;;8.70;;
55222;SDS011;41090;48.632;12.428;2022-08-21T02:28:47;13.60;;;10.30;;
55222;SDS011;41090;48.632;12.428;2022-08-21T02:31:13;10.43;;;9.43;;
55222;SDS011;41090;48.632;12.428;2022-08-21T02:33:38;14.70;;;10.10;;
55222;SDS011;41090;48.632;12.428;2022-08-21T02:36:04;14.23;;;9.87;;
55222;SDS011;41090;48.632;12.428;2022-08-21T02:38:31;9.20;;;8.13;;
55222;SDS011;41090;48.632;12.428;2022-08-21T02:40:58;10.07;;;8.23;;
55222;SDS011;41090;48.632;12.428;2022-08-21T02:43:24;12.20;;;9.87;;
55222;SDS011;41090;48.632;12.428;2022-08-21T02:45:50;10.50;;;9.03;;
55222;SDS011;41090;48.632;12.428;2022-08-21T02:48:18;11.83;;;9.73;;
55222;SDS011;41090;48.632;12.428;2022-08-21T02:50:45;10.50;;;9.50;;
55222;SDS011;41090;48.632;12.428;2022-08-21T02:53:11;12.63;;;10.10;;
55222;SDS011;41090;48.632;12.428;2022-08-21T02:55:39;12.23;;;10.97;;
55222;SDS011;41090;48.632;12.428;2022-08-21T02:58:05;13.40;;;10.67;;
55222;SDS011;41090;48.632;12.428;2022-08-21T03:00:43;10.57;;;9.53;;
55222;SDS011;41090;48.632;12.428;2022-08-21T03:03:08;12.17;;;9.97;;
55222;SDS011;41090;48.632;12.428;2022-08-21T03:05:34;17.53;;;10.87;;
55222;SDS011;41090;48.632;12.428;2022-08-21T03:08:02;14.67;;;11.03;;
55222;SDS011;41090;48.632;12.428;2022-08-21T03:10:28;9.90;;;8.90;;
55222;SDS011;41090;48.632;12.428;2022-08-21T03:12:55;12.90;;;10.60;;
55222;SDS011;41090;48.632;12.428;2022-08-21T03:15:21;15.23;;;11.13;;
55222;SDS011;41090;48.632;12.428;2022-08-21T03:17:47;13.80;;;12.23;;
55222;SDS011;41090;48.632;12.428;2022-08-21T03:20:13;11.37;;;10.17;;
55222;SDS011;41090;48.632;12.428;2022-08-21T03:22:39;10.73;;;9.70;;
55222;SDS011;41090;48.632;12.428;2022-08-21T03:25:04;13.13;;;10.13;;
55222;SDS011;41090;48.632;12.428;2022-08-21T03:27:30;10.90;;;9.30;;
55222;SDS011;41090;48.632;12.428;2022-08-21T03:29:56;11.83;;;10.00;;
55222;SDS011;41090;48.632;12.428;2022-08-21T03:32:21;10.53;;;9.60;;
55222;SDS011;41090;48.632;12.428;2022-08-21T03:34:52;12.53;;;10.07;;
55222;SDS011;41090;48.632;12.428;2022-08-21T03:37:18;10.93;;;9.77;;
55222;SDS011;41090;48.632;12.428;2022-08-21T03:39:43;11.20;;;9.90;;
55222;SDS011;41090;48.632;12.428;2022-08-21T03:42:09;11.37;;;10.37;;
55222;SDS011;41090;48.632;12.428;2022-08-21T03:44:35;10.03;;;8.93;;
55222;SDS011;41090;48.632;12.428;2022-08-21T03:47:01;11.40;;;10.33;;
55222;SDS011;41090;48.632;12.428;2022-08-21T03:49:26;11.43;;;10.17;;
55222;SDS011;41090;48.632;12.428;2022-08-21T03:51:52;10.40;;;9.40;;
55222;SDS011;41090;48.632;12.428;2022-08-21T03:54:17;10.77;;;9.73;;
55222;SDS011;41090;48.632;12.428;2022-08-21T03:56:42;11.50;;;10.23;;
55222;SDS011;41090;48.632;12.428;2022-08-21T03:59:08;11.00;;;10.00;;
55222;SDS011;41090;48.632;12.428;2022-08-21T04:01:33;11.47;;;10.47;;
55222;SDS011;41090;48.632;12.428;2022-08-21T04:03:59;12.07;;;11.03;;
55222;SDS011;41090;48.632;12.428;2022-08-21T04:06:24;12.17;;;10.97;;
55222;SDS011;41090;48.632;12.428;2022-08-21T04:08:58;11.93;;;10.83;;
55222;SDS011;41090;48.632;12.428;2022-08-21T04:11:23;12.67;;;11.57;;
55222;SDS011;41090;48.632;12.428;2022-08-21T04:13:49;13.30;;;12.10;;
55222;SDS011;41090;48.632;12.428;2022-08-21T04:16:14;13.30;;;12.07;;
55222;SDS011;41090;48.632;12.428;2022-08-21T04:18:39;13.07;;;11.80;;
55222;SDS011;41090;48.632;12.428;2022-08-21T04:21:05;13.10;;;12.00;;
55222;SDS011;41090;48.632;12.428;2022-08-21T04:23:30;12.53;;;11.53;;
55222;SDS011;41090;48.632;12.428;2022-08-21T04:25:56;13.03;;;12.03;;
55222;SDS011;41090;48.632;12.428;2022-08-21T04:28:34;12.40;;;11.30;;
55222;SDS011;41090;48.632;12.428;2022-08-21T04:30:59;12.57;;;11.33;;
55222;SDS011;41090;48.632;12.428;2022-08-21T04:33:24;13.23;;;11.93;;
55222;SDS011;41090;48.632;12.428;2022-08-21T04:35:52;11.67;;;10.67;;
55222;SDS011;41090;48.632;12.428;2022-08-21T04:38:17;12.63;;;11.27;;
55222;SDS011;41090;48.632;12.428;2022-08-21T04:40:43;12.50;;;11.50;;
55222;SDS011;41090;48.632;12.428;2022-08-21T04:43:09;12.50;;;11.30;;
55222;SDS011;41090;48.632;12.428;2022-08-21T04:45:40;12.93;;;11.83;;
55222;SDS011;41090;48.632;12.428;2022-08-21T04:48:06;12.03;;;11.03;;
55222;SDS011;41090;48.632;12.428;2022-08-21T04:53:17;13.10;;;12.00;;
55222;SDS011;41090;48.632;12.428;2022-08-21T04:55:43;13.67;;;12.47;;
55222;SDS011;41090;48.632;12.428;2022-08-21T04:58:09;14.37;;;13.10;;
55222;SDS011;41090;48.632;12.428;2022-08-21T05:00:36;14.33;;;13.03;;
55222;SDS011;41090;48.632;12.428;2022-08-21T05:03:02;15.33;;;13.93;;
55222;SDS011;41090;48.632;12.428;2022-08-21T05:05:28;14.77;;;13.40;;
55222;SDS011;41090;48.632;12.428;2022-08-21T05:07:54;15.00;;;13.67;;
55222;SDS011;41090;48.632;12.428;2022-08-21T05:10:20;15.10;;;13.80;;
55222;SDS011;41090;48.632;12.428;2022-08-21T05:12:47;15.53;;;13.93;;
55222;SDS011;41090;48.632;12.428;2022-08-21T05:15:13;16.23;;;14.63;;
55222;SDS011;41090;48.632;12.428;2022-08-21T05:17:38;15.83;;;14.23;;
55222;SDS011;41090;48.632;12.428;2022-08-21T05:20:04;15.27;;;14.07;;
55222;SDS011;41090;48.632;12.428;2022-08-21T05:22:29;15.07;;;13.87;;
55222;SDS011;41090;48.632;12.428;2022-08-21T05:24:54;16.00;;;14.60;;
55222;SDS011;41090;48.632;12.428;2022-08-21T05:27:21;16.33;;;14.97;;
55222;SDS011;41090;48.632;12.428;2022-08-21T05:29:47;15.90;;;14.57;;
55222;SDS011;41090;48.632;12.428;2022-08-21T05:32:12;16.97;;;15.47;;
55222;SDS011;41090;48.632;12.428;2022-08-21T05:34:38;16.23;;;14.80;;
55222;SDS011;41090;48.632;12.428;2022-08-21T05:37:03;15.27;;;13.97;;
55222;SDS011;41090;48.632;12.428;2022-08-21T05:39:29;15.27;;;13.97;;
55222;SDS011;41090;48.632;12.428;2022-08-21T05:41:54;15.30;;;14.00;;
55222;SDS011;41090;48.632;12.428;2022-08-21T05:44:19;15.87;;;14.57;;
55222;SDS011;41090;48.632;12.428;2022-08-21T05:46:44;16.20;;;14.70;;
55222;SDS011;41090;48.632;12.428;2022-08-21T05:51:41;15.87;;;14.53;;
55222;SDS011;41090;48.632;12.428;2022-08-21T05:54:07;16.33;;;14.93;;
55222;SDS011;41090;48.632;12.428;2022-08-21T05:56:32;16.00;;;14.60;;
55222;SDS011;41090;48.632;12.428;2022-08-21T05:58:58;16.70;;;15.20;;
55222;SDS011;41090;48.632;12.428;2022-08-21T06:01:23;16.67;;;14.83;;
55222;SDS011;41090;48.632;12.428;2022-08-21T06:03:48;16.00;;;14.63;;
55222;SDS011;41090;48.632;12.428;2022-08-21T06:06:13;16.80;;;15.30;;
55222;SDS011;41090;48.632;12.428;2022-08-21T06:08:39;17.23;;;15.63;;
55222;SDS011;41090;48.632;12.428;2022-08-21T06:11:05;17.40;;;15.77;;
55222;SDS011;41090;48.632;12.428;2022-08-21T06:13:31;17.13;;;15.67;;
55222;SDS011;41090;48.632;12.428;2022-08-21T06:16:07;17.07;;;15.57;;
55222;SDS011;41090;48.632;12.428;2022-08-21T06:18:33;16.77;;;15.37;;
55222;SDS011;41090;48.632;12.428;2022-08-21T06:20:58;16.73;;;15.30;;
55222;SDS011;41090;48.632;12.428;2022-08-21T06:23:23;17.73;;;16.03;;
55222;SDS011;41090;48.632;12.428;2022-08-21T06:25:48;18.90;;;16.67;;
55222;SDS011;41090;48.632;12.428;2022-08-21T06:28:14;18.80;;;17.20;;
55222;SDS011;41090;48.632;12.428;2022-08-21T06:30:39;19.53;;;17.63;;
55222;SDS011;41090;48.632;12.428;2022-08-21T06:33:04;21.00;;;19.00;;
55222;SDS011;41090;48.632;12.428;2022-08-21T06:35:31;20.13;;;18.33;;
55222;SDS011;41090;48.632;12.428;2022-08-21T06:37:56;19.80;;;18.07;;
55222;SDS011;41090;48.632;12.428;2022-08-21T06:40:22;20.80;;;18.73;;
55222;SDS011;41090;48.632;12.428;2022-08-21T06:42:47;19.13;;;17.33;;
55222;SDS011;41090;48.632;12.428;2022-08-21T06:45:12;19.87;;;17.97;;
55222;SDS011;41090;48.632;12.428;2022-08-21T06:47:38;20.43;;;18.53;;
55222;SDS011;41090;48.632;12.428;2022-08-21T06:50:03;21.00;;;18.90;;
55222;SDS011;41090;48.632;12.428;2022-08-21T06:52:32;21.77;;;19.63;;
55222;SDS011;41090;48.632;12.428;2022-08-21T06:54:57;21.70;;;19.70;;
55222;SDS011;41090;48.632;12.428;2022-08-21T06:57:22;23.90;;;21.30;;
55222;SDS011;41090;48.632;12.428;2022-08-21T06:59:48;21.57;;;19.57;;
55222;SDS011;41090;48.632;12.428;2022-08-21T07:02:14;22.80;;;20.33;;
55222;SDS011;41090;48.632;12.428;2022-08-21T07:04:39;21.03;;;19.03;;
55222;SDS011;41090;48.632;12.428;2022-08-21T07:07:04;21.50;;;19.50;;
55222;SDS011;41090;48.632;12.428;2022-08-21T07:09:30;21.53;;;19.53;;
55222;SDS011;41090;48.632;12.428;2022-08-21T07:11:55;21.23;;;19.33;;
55222;SDS011;41090;48.632;12.428;2022-08-21T07:14:21;19.77;;;17.98;;
55222;SDS011;41090;48.632;12.428;2022-08-21T07:16:47;20.02;;;18.23;;
55222;SDS011;41090;48.632;12.428;2022-08-21T07:19:12;18.45;;;16.85;;
55222;SDS011;41090;48.632;12.428;2022-08-21T07:21:37;18.27;;;16.67;;
55222;SDS011;41090;48.632;12.428;2022-08-21T07:24:02;17.52;;;15.93;;
55222;SDS011;41090;48.632;12.428;2022-08-21T07:26:28;19.15;;;17.42;;
55222;SDS011;41090;48.632;12.428;2022-08-21T07:28:54;19.17;;;17.38;;
55222;SDS011;41090;48.632;12.428;2022-08-21T07:31:20;19.30;;;17.40;;
55222;SDS011;41090;48.632;12.428;2022-08-21T07:33:46;18.17;;;16.58;;
55222;SDS011;41090;48.632;12.428;2022-08-21T07:36:11;17.67;;;16.00;;
55222;SDS011;41090;48.632;12.428;2022-08-21T07:38:37;18.13;;;16.52;;
55222;SDS011;41090;48.632;12.428;2022-08-21T07:41:04;18.23;;;16.63;;
55222;SDS011;41090;48.632;12.428;2022-08-21T07:43:31;18.23;;;16.63;;
55222;SDS011;41090;48.632;12.428;2022-08-21T07:45:57;17.85;;;16.35;;
55222;SDS011;41090;48.632;12.428;2022-08-21T07:48:22;17.25;;;15.73;;
55222;SDS011;41090;48.632;12.428;2022-08-21T07:50:47;17.63;;;16.13;;
55222;SDS011;41090;48.632;12.428;2022-08-21T07:53:13;18.67;;;16.75;;
55222;SDS011;41090;48.632;12.428;2022-08-21T07:55:41;19.40;;;17.58;;
55222;SDS011;41090;48.632;12.428;2022-08-21T07:58:07;18.90;;;17.13;;
55222;SDS011;41090;48.632;12.428;2022-08-21T08:00:33;20.95;;;18.83;;
55222;SDS011;41090;48.632;12.428;2022-08-21T08:02:58;18.80;;;17.00;;
55222;SDS011;41090;48.632;12.428;2022-08-21T08:05:24;18.60;;;17.00;;
55222;SDS011;41090;48.632;12.428;2022-08-21T08:07:50;16.80;;;15.35;;
55222;SDS011;41090;48.632;12.428;2022-08-21T08:10:15;15.50;;;14.20;;
55222;SDS011;41090;48.632;12.428;2022-08-21T08:12:41;18.40;;;16.70;;
55222;SDS011;41090;48.632;12.428;2022-08-21T08:15:08;17.52;;;15.95;;
55222;SDS011;41090;48.632;12.428;2022-08-21T08:17:34;18.60;;;16.80;;
55222;SDS011;41090;48.632;12.428;2022-08-21T08:19:59;17.63;;;15.95;;
55222;SDS011;41090;48.632;12.428;2022-08-21T08:22:26;15.05;;;13.70;;
55222;SDS011;41090;48.632;12.428;2022-08-21T08:24:51;16.33;;;14.77;;
55222;SDS011;41090;48.632;12.428;2022-08-21T08:27:16;17.10;;;15.52;;
55222;SDS011;41090;48.632;12.428;2022-08-21T08:29:42;18.15;;;16.52;;
55222;SDS011;41090;48.632;12.428;2022-08-21T08:32:08;18.40;;;16.73;;
55222;SDS011;41090;48.632;12.428;2022-08-21T08:34:34;17.88;;;16.25;;
55222;SDS011;41090;48.632;12.428;2022-08-21T08:36:59;17.67;;;15.80;;
55222;SDS011;41090;48.632;12.428;2022-08-21T08:39:24;16.90;;;15.38;;
55222;SDS011;41090;48.632;12.428;2022-08-21T08:41:51;18.20;;;16.50;;
55222;SDS011;41090;48.632;12.428;2022-08-21T08:44:19;17.25;;;15.73;;
55222;SDS011;41090;48.632;12.428;2022-08-21T08:46:46;17.85;;;16.25;;
55222;SDS011;41090;48.632;12.428;2022-08-21T08:49:17;18.83;;;17.00;;
55222;SDS011;41090;48.632;12.428;2022-08-21T08:51:51;19.10;;;17.20;;
55222;SDS011;41090;48.632;12.428;2022-08-21T08:54:28;19.38;;;17.48;;
55222;SDS011;41090;48.632;12.428;2022-08-21T08:56:57;17.27;;;15.77;;
55222;SDS011;41090;48.632;12.428;2022-08-21T08:59:25;19.08;;;17.30;;
55222;SDS011;41090;48.632;12.428;2022-08-21T09:01:52;17.35;;;15.75;;
55222;SDS011;41090;48.632;12.428;2022-08-21T09:04:24;16.20;;;14.80;;
55222;SDS011;41090;48.632;12.428;2022-08-21T09:06:55;16.60;;;14.90;;
55222;SDS011;41090;48.632;12.428;2022-08-21T09:09:25;15.23;;;13.75;;
55222;SDS011;41090;48.632;12.428;2022-08-21T09:22:07;16.38;;;14.88;;
55222;SDS011;41090;48.632;12.428;2022-08-21T09:29:31;15.93;;;14.52;;
55222;SDS011;41090;48.632;12.428;2022-08-21T09:31:57;16.20;;;14.70;;
55222;SDS011;41090;48.632;12.428;2022-08-21T09:34:28;16.20;;;14.80;;
55222;SDS011;41090;48.632;12.428;2022-08-21T09:36:54;15.07;;;13.60;;
55222;SDS011;41090;48.632;12.428;2022-08-21T09:39:24;15.48;;;14.07;;
55222;SDS011;41090;48.632;12.428;2022-08-21T09:41:57;14.63;;;13.32;;
55222;SDS011;41090;48.632;12.428;2022-08-21T09:44:28;14.43;;;13.07;;
55222;SDS011;41090;48.632;12.428;2022-08-21T09:46:54;15.10;;;13.57;;
55222;SDS011;41090;48.632;12.428;2022-08-21T09:49:27;15.30;;;13.82;;
55222;SDS011;41090;48.632;12.428;2022-08-21T09:51:52;15.73;;;14.20;;
55222;SDS011;41090;48.632;12.428;2022-08-21T09:54:19;14.85;;;13.55;;
55222;SDS011;41090;48.632;12.428;2022-08-21T09:59:49;15.60;;;14.20;;
55222;SDS011;41090;48.632;12.428;2022-08-21T10:02:28;16.60;;;15.00;;
55222;SDS011;41090;48.632;12.428;2022-08-21T10:05:01;16.05;;;14.55;;
55222;SDS011;41090;48.632;12.428;2022-08-21T10:07:28;15.38;;;13.93;;
55222;SDS011;41090;48.632;12.428;2022-08-21T10:10:13;15.23;;;13.82;;
55222;SDS011;41090;48.632;12.428;2022-08-21T10:15:24;15.50;;;14.02;;
55222;SDS011;41090;48.632;12.428;2022-08-21T10:25:54;11.95;;;10.95;;
55222;SDS011;41090;48.632;12.428;2022-08-21T10:31:18;12.43;;;11.32;;
55222;SDS011;41090;48.632;12.428;2022-08-21T10:36:16;9.63;;;8.93;;
55222;SDS011;41090;48.632;12.428;2022-08-21T10:38:55;11.40;;;10.50;;
55222;SDS011;41090;48.632;12.428;2022-08-21T10:46:40;9.98;;;9.23;;
55222;SDS011;41090;48.632;12.428;2022-08-21T10:49:13;8.80;;;8.00;;
55222;SDS011;41090;48.632;12.428;2022-08-21T10:51:41;9.32;;;8.63;;
55222;SDS011;41090;48.632;12.428;2022-08-21T10:54:21;8.80;;;7.95;;
55222;SDS011;41090;48.632;12.428;2022-08-21T10:56:51;8.48;;;7.80;;
55222;SDS011;41090;48.632;12.428;2022-08-21T11:06:39;7.60;;;6.97;;
55222;SDS011;41090;48.632;12.428;2022-08-21T11:09:13;8.35;;;7.57;;
55222;SDS011;41090;48.632;12.428;2022-08-21T11:11:41;8.02;;;7.32;;
55222;SDS011;41090;48.632;12.428;2022-08-21T11:16:53;7.93;;;7.32;;
55222;SDS011;41090;48.632;12.428;2022-08-21T11:19:28;7.05;;;6.47;;
55222;SDS011;41090;48.632;12.428;2022-08-21T11:21:56;7.53;;;7.03;;
55222;SDS011;41090;48.632;12.428;2022-08-21T11:24:40;7.32;;;6.63;;
55222;SDS011;41090;48.632;12.428;2022-08-21T11:27:14;7.03;;;6.53;;
55222;SDS011;41090;48.632;12.428;2022-08-21T11:29:43;7.00;;;6.40;;
55222;SDS011;41090;48.632;12.428;2022-08-21T11:40:11;8.35;;;6.80;;
55222;SDS011;41090;48.632;12.428;2022-08-21T11:42:47;7.45;;;6.85;;
55222;SDS011;41090;48.632;12.428;2022-08-21T11:45:16;9.63;;;8.27;;
55222;SDS011;41090;48.632;12.428;2022-08-21T11:50:29;8.40;;;7.70;;
55222;SDS011;41090;48.632;12.428;2022-08-21T11:55:41;9.07;;;8.35;;
55222;SDS011;41090;48.632;12.428;2022-08-21T11:58:23;9.95;;;9.07;;
55222;SDS011;41090;48.632;12.428;2022-08-21T12:00:54;9.05;;;8.23;;
55222;SDS011;41090;48.632;12.428;2022-08-21T12:03:23;7.53;;;6.93;;
55222;SDS011;41090;48.632;12.428;2022-08-21T12:05:54;8.32;;;7.43;;
55222;SDS011;41090;48.632;12.428;2022-08-21T12:13:27;6.47;;;5.88;;
55222;SDS011;41090;48.632;12.428;2022-08-21T12:15:52;7.70;;;7.10;;
55222;SDS011;41090;48.632;12.428;2022-08-21T12:18:29;7.70;;;7.10;;
55222;SDS011;41090;48.632;12.428;2022-08-21T12:23:44;6.22;;;5.72;;
55222;SDS011;41090;48.632;12.428;2022-08-21T12:26:14;6.07;;;5.53;;
55222;SDS011;41090;48.632;12.428;2022-08-21T12:28:43;5.55;;;5.15;;
55222;SDS011;41090;48.632;12.428;2022-08-21T12:31:18;5.57;;;5.18;;
55222;SDS011;41090;48.632;12.428;2022-08-21T12:33:47;7.45;;;6.75;;
55222;SDS011;41090;48.632;12.428;2022-08-21T12:36:16;6.63;;;6.00;;
55222;SDS011;41090;48.632;12.428;2022-08-21T12:39:03;5.68;;;5.28;;
55222;SDS011;41090;48.632;12.428;2022-08-21T12:41:55;5.07;;;4.68;;
55222;SDS011;41090;48.632;12.428;2022-08-21T12:44:33;5.57;;;5.18;;
55222;SDS011;41090;48.632;12.428;2022-08-21T12:47:02;4.60;;;4.30;;
55222;SDS011;41090;48.632;12.428;2022-08-21T12:49:33;4.82;;;4.45;;
55222;SDS011;41090;48.632;12.428;2022-08-21T12:54:38;5.38;;;4.38;;
55222;SDS011;41090;48.632;12.428;2022-08-21T12:57:04;3.92;;;3.60;;
55222;SDS011;41090;48.632;12.428;2022-08-21T12:59:30;3.88;;;3.58;;
55222;SDS011;41090;48.632;12.428;2022-08-21T13:01:56;4.20;;;3.80;;
55222;SDS011;41090;48.632;12.428;2022-08-21T13:04:27;4.30;;;3.92;;
55222;SDS011;41090;48.632;12.428;2022-08-21T13:06:56;3.70;;;3.40;;
55222;SDS011;41090;48.632;12.428;2022-08-21T13:09:24;4.00;;;3.70;;
55222;SDS011;41090;48.632;12.428;2022-08-21T13:11:50;3.55;;;3.35;;
55222;SDS011;41090;48.632;12.428;2022-08-21T13:16:54;3.28;;;3.08;;
55222;SDS011;41090;48.632;12.428;2022-08-21T13:19:20;4.07;;;3.72;;
55222;SDS011;41090;48.632;12.428;2022-08-21T13:21:46;3.50;;;3.30;;
55222;SDS011;41090;48.632;12.428;2022-08-21T13:26:39;3.22;;;3.03;;
55222;SDS011;41090;48.632;12.428;2022-08-21T13:29:09;3.25;;;2.95;;
55222;SDS011;41090;48.632;12.428;2022-08-21T13:31:36;4.53;;;3.33;;
55222;SDS011;41090;48.632;12.428;2022-08-21T13:34:02;3.25;;;2.83;;
55222;SDS011;41090;48.632;12.428;2022-08-21T13:36:32;3.15;;;2.95;;
55222;SDS011;41090;48.632;12.428;2022-08-21T13:38:59;3.58;;;3.28;;
55222;SDS011;41090;48.632;12.428;2022-08-21T13:41:26;3.40;;;3.10;;
55222;SDS011;41090;48.632;12.428;2022-08-21T13:43:57;3.22;;;3.03;;
55222;SDS011;41090;48.632;12.428;2022-08-21T13:46:23;3.08;;;2.88;;
55222;SDS011;41090;48.632;12.428;2022-08-21T13:48:49;3.33;;;3.03;;
55222;SDS011;41090;48.632;12.428;2022-08-21T13:51:15;3.28;;;2.95;;
55222;SDS011;41090;48.632;12.428;2022-08-21T13:56:05;3.23;;;3.00;;
55222;SDS011;41090;48.632;12.428;2022-08-21T13:58:40;3.83;;;3.13;;
55222;SDS011;41090;48.632;12.428;2022-08-21T14:01:15;3.50;;;3.20;;
55222;SDS011;41090;48.632;12.428;2022-08-21T14:03:42;3.05;;;2.85;;
55222;SDS011;41090;48.632;12.428;2022-08-21T14:06:26;3.88;;;2.75;;
55222;SDS011;41090;48.632;12.428;2022-08-21T14:09:08;3.83;;;3.25;;
55222;SDS011;41090;48.632;12.428;2022-08-21T14:11:34;3.20;;;2.95;;
55222;SDS011;41090;48.632;12.428;2022-08-21T14:14:01;4.00;;;2.90;;
55222;SDS011;41090;48.632;12.428;2022-08-21T14:16:29;4.90;;;3.40;;
55222;SDS011;41090;48.632;12.428;2022-08-21T14:21:32;3.50;;;3.20;;
55222;SDS011;41090;48.632;12.428;2022-08-21T14:24:08;3.80;;;3.40;;
55222;SDS011;41090;48.632;12.428;2022-08-21T14:26:34;3.40;;;3.17;;
55222;SDS011;41090;48.632;12.428;2022-08-21T14:29:01;3.60;;;3.30;;
55222;SDS011;41090;48.632;12.428;2022-08-21T14:31:28;3.67;;;3.40;;
55222;SDS011;41090;48.632;12.428;2022-08-21T14:33:54;4.70;;;3.47;;
55222;SDS011;41090;48.632;12.428;2022-08-21T14:36:20;3.22;;;3.00;;
55222;SDS011;41090;48.632;12.428;2022-08-21T14:38:46;4.15;;;3.13;;
55222;SDS011;41090;48.632;12.428;2022-08-21T14:43:40;3.70;;;3.40;;
55222;SDS011;41090;48.632;12.428;2022-08-21T14:46:06;4.50;;;4.20;;
55222;SDS011;41090;48.632;12.428;2022-08-21T14:48:31;5.65;;;3.70;;
55222;SDS011;41090;48.632;12.428;2022-08-21T14:50:56;5.28;;;4.88;;
55222;SDS011;41090;48.632;12.428;2022-08-21T14:53:21;4.00;;;3.70;;
55222;SDS011;41090;48.632;12.428;2022-08-21T14:55:47;4.53;;;4.18;;
55222;SDS011;41090;48.632;12.428;2022-08-21T14:58:32;4.40;;;3.95;;
55222;SDS011;41090;48.632;12.428;2022-08-21T15:00:58;5.22;;;4.80;;
55222;SDS011;41090;48.632;12.428;2022-08-21T15:03:29;4.63;;;4.22;;
55222;SDS011;41090;48.632;12.428;2022-08-21T15:05:55;3.08;;;2.85;;
55222;SDS011;41090;48.632;12.428;2022-08-21T15:08:20;3.35;;;3.08;;
55222;SDS011;41090;48.632;12.428;2022-08-21T15:10:45;3.33;;;3.03;;
55222;SDS011;41090;48.632;12.428;2022-08-21T15:13:13;3.67;;;2.90;;
55222;SDS011;41090;48.632;12.428;2022-08-21T15:15:39;3.30;;;3.00;;
55222;SDS011;41090;48.632;12.428;2022-08-21T15:18:05;3.22;;;3.03;;
55222;SDS011;41090;48.632;12.428;2022-08-21T15:20:30;2.83;;;2.63;;
55222;SDS011;41090;48.632;12.428;2022-08-21T15:22:56;2.70;;;2.50;;
55222;SDS011;41090;48.632;12.428;2022-08-21T15:25:21;3.30;;;3.10;;
55222;SDS011;41090;48.632;12.428;2022-08-21T15:27:46;3.70;;;3.40;;
55222;SDS011;41090;48.632;12.428;2022-08-21T15:30:11;5.15;;;3.05;;
55222;SDS011;41090;48.632;12.428;2022-08-21T15:32:37;3.50;;;3.20;;
55222;SDS011;41090;48.632;12.428;2022-08-21T15:35:03;3.95;;;3.08;;
55222;SDS011;41090;48.632;12.428;2022-08-21T15:37:28;3.70;;;3.40;;
55222;SDS011;41090;48.632;12.428;2022-08-21T15:39:54;3.88;;;3.58;;
55222;SDS011;41090;48.632;12.428;2022-08-21T15:42:19;3.53;;;3.13;;
55222;SDS011;41090;48.632;12.428;2022-08-21T15:44:44;3.92;;;3.63;;
55222;SDS011;41090;48.632;12.428;2022-08-21T15:47:12;3.72;;;3.42;;
55222;SDS011;41090;48.632;12.428;2022-08-21T15:49:41;3.50;;;3.20;;
55222;SDS011;41090;48.632;12.428;2022-08-21T15:52:09;3.15;;;2.95;;
55222;SDS011;41090;48.632;12.428;2022-08-21T15:54:35;4.40;;;3.42;;